createdAt,value
2022-08-03T00:00:20.424Z,70.41
2022-08-03T00:01:20.408Z,69.06
2022-08-03T00:02:20.412Z,66.66
2022-08-03T00:03:20.465Z,70.42
2022-08-03T00:04:20.351Z,69.83
2022-08-03T00:05:20.335Z,68.19
2022-08-03T00:06:20.314Z,65.09
2022-08-03T00:07:20.326Z,67.24
2022-08-03T00:08:20.280Z,67.36
2022-08-03T00:09:20.259Z,64.91
2022-08-03T00:10:20.237Z,66.01
2022-08-03T00:11:20.218Z,70.15
2022-08-03T00:12:20.233Z,65.18
2022-08-03T00:13:20.181Z,67.84
2022-08-03T00:14:20.165Z,70.25
2022-08-03T00:15:20.867Z,68.16
2022-08-03T00:16:20.127Z,64.56
2022-08-03T00:17:20.133Z,68.30
2022-08-03T00:18:20.091Z,69.56
2022-08-03T00:19:20.071Z,68.31
2022-08-03T00:20:20.049Z,68.35
2022-08-03T00:21:20.029Z,66.66
2022-08-03T00:22:20.039Z,67.57
2022-08-03T00:23:20.001Z,68.00
2022-08-03T00:24:19.973Z,65.84
2022-08-03T00:25:19.960Z,68.66
2022-08-03T00:26:19.940Z,66.12
2022-08-03T00:27:19.947Z,66.40
2022-08-03T00:28:19.900Z,66.78
2022-08-03T00:29:19.888Z,65.98
2022-08-03T00:30:19.894Z,65.39
2022-08-03T00:31:38.023Z,65.39
2022-08-03T00:32:20.858Z,67.07
2022-08-03T00:33:19.810Z,68.90
2022-08-03T00:34:26.137Z,67.06
2022-08-03T00:35:35.132Z,67.53
2022-08-03T00:36:20.756Z,65.27
2022-08-03T00:37:19.765Z,65.46
2022-08-03T00:38:19.714Z,67.58
2022-08-03T00:39:19.727Z,68.37
2022-08-03T00:40:19.682Z,66.44
2022-08-03T00:41:19.661Z,69.00
2022-08-03T00:42:19.666Z,66.23
2022-08-03T00:43:19.623Z,68.04
2022-08-03T00:44:19.603Z,68.55
2022-08-03T00:45:19.590Z,65.64
2022-08-03T00:46:21.952Z,65.44
2022-08-03T00:47:20.575Z,67.06
2022-08-03T00:48:33.457Z,67.25
2022-08-03T00:49:20.563Z,66.13
2022-08-03T00:50:19.490Z,68.24
2022-08-03T00:51:19.471Z,67.87
2022-08-03T00:52:19.680Z,64.17
2022-08-03T00:53:19.436Z,68.69
2022-08-03T00:54:19.413Z,68.93
2022-08-03T00:55:19.392Z,65.75
2022-08-03T00:56:19.376Z,65.78
2022-08-03T00:57:19.387Z,66.89
2022-08-03T00:58:19.338Z,69.08
2022-08-03T00:59:19.349Z,69.35
2022-08-03T01:00:19.304Z,69.10
2022-08-03T01:01:19.308Z,70.58
2022-08-03T01:02:19.292Z,67.13
2022-08-03T01:03:19.245Z,68.36
2022-08-03T01:04:19.250Z,69.15
2022-08-03T01:05:19.206Z,68.68
2022-08-03T01:06:19.187Z,62.99
2022-08-03T01:07:19.190Z,65.12
2022-08-03T01:08:19.147Z,65.97
2022-08-03T01:09:19.125Z,67.50
2022-08-03T01:10:19.103Z,68.95
2022-08-03T01:11:19.090Z,68.20
2022-08-03T01:12:19.092Z,68.15
2022-08-03T01:14:03.525Z,64.41
2022-08-03T01:14:20.244Z,67.97
2022-08-03T01:15:19.009Z,65.38
2022-08-03T01:16:18.995Z,68.35
2022-08-03T01:17:19.013Z,68.27
2022-08-03T01:18:18.953Z,69.18
2022-08-03T01:19:18.937Z,69.17
2022-08-03T01:20:18.918Z,69.14
2022-08-03T01:21:18.898Z,70.65
2022-08-03T01:22:18.904Z,68.08
2022-08-03T01:23:18.859Z,69.81
2022-08-03T01:24:18.841Z,67.88
2022-08-03T01:25:18.820Z,68.27
2022-08-03T01:26:18.804Z,68.96
2022-08-03T01:27:18.810Z,68.78
2022-08-03T01:28:18.765Z,68.89
2022-08-03T01:29:18.749Z,67.96
2022-08-03T01:30:18.727Z,69.61
2022-08-03T01:31:18.708Z,67.83
2022-08-03T01:33:00.126Z,68.85
2022-08-03T01:33:19.666Z,69.26
2022-08-03T01:34:18.653Z,70.29
2022-08-03T01:35:18.647Z,66.37
2022-08-03T01:36:18.633Z,70.50
2022-08-03T01:37:18.621Z,68.58
2022-08-03T01:38:18.569Z,67.84
2022-08-03T01:39:18.550Z,68.84
2022-08-03T01:40:18.557Z,67.90
2022-08-03T01:41:18.509Z,67.60
2022-08-03T01:42:18.618Z,67.28
2022-08-03T01:44:26.702Z,71.15
2022-08-03T01:44:27.984Z,69.81
2022-08-03T01:45:19.465Z,68.16
2022-08-03T01:46:18.414Z,69.53
2022-08-03T01:47:18.420Z,67.88
2022-08-03T01:48:18.373Z,70.56
2022-08-03T01:49:18.461Z,67.57
2022-08-03T01:50:18.341Z,68.16
2022-08-03T01:51:18.315Z,69.33
2022-08-03T01:52:18.467Z,66.96
2022-08-03T01:53:18.306Z,70.38
2022-08-03T01:54:18.261Z,70.18
2022-08-03T01:55:18.236Z,69.88
2022-08-03T01:56:18.245Z,68.02
2022-08-03T01:57:18.200Z,67.15
2022-08-03T01:58:18.205Z,68.90
2022-08-03T01:59:18.160Z,67.42
2022-08-03T02:00:18.140Z,65.35
2022-08-03T02:01:18.266Z,70.09
2022-08-03T02:02:33.560Z,68.92
2022-08-03T02:03:20.108Z,67.53
2022-08-03T02:04:18.061Z,67.86
2022-08-03T02:05:18.042Z,66.42
2022-08-03T02:06:59.884Z,68.66
2022-08-03T02:07:20.004Z,69.17
2022-08-03T02:08:18.011Z,67.97
2022-08-03T02:09:17.966Z,69.01
2022-08-03T02:10:34.725Z,67.30
2022-08-03T02:11:18.927Z,70.12
2022-08-03T02:12:18.156Z,70.65
2022-08-03T02:13:17.917Z,70.82
2022-08-03T02:14:17.869Z,66.89
2022-08-03T02:15:17.844Z,67.09
2022-08-03T02:16:17.827Z,67.62
2022-08-03T02:17:17.810Z,69.36
2022-08-03T02:18:17.816Z,68.78
2022-08-03T02:19:17.768Z,66.28
2022-08-03T02:20:17.748Z,67.60
2022-08-03T02:21:55.810Z,71.62
2022-08-03T02:22:18.708Z,69.05
2022-08-03T02:23:17.716Z,69.16
2022-08-03T02:24:17.667Z,68.16
2022-08-03T02:25:17.653Z,70.32
2022-08-03T02:26:17.635Z,67.68
2022-08-03T02:27:17.608Z,67.87
2022-08-03T02:28:17.620Z,69.31
2022-08-03T02:29:17.568Z,68.26
2022-08-03T02:30:17.547Z,71.17
2022-08-03T02:31:17.556Z,69.45
2022-08-03T02:32:17.863Z,69.02
2022-08-03T02:33:17.519Z,69.85
2022-08-03T02:34:17.467Z,70.05
2022-08-03T02:35:17.451Z,68.01
2022-08-03T02:36:17.431Z,69.48
2022-08-03T02:37:17.407Z,69.95
2022-08-03T02:38:17.420Z,66.73
2022-08-03T02:39:17.371Z,69.15
2022-08-03T02:40:17.350Z,70.31
2022-08-03T02:41:17.330Z,72.17
2022-08-03T02:42:17.726Z,70.26
2022-08-03T02:43:17.315Z,68.43
2022-08-03T02:44:17.270Z,69.96
2022-08-03T02:45:17.250Z,69.28
2022-08-03T02:46:17.231Z,69.99
2022-08-03T02:47:17.209Z,68.64
2022-08-03T02:48:17.217Z,66.65
2022-08-03T02:49:40.865Z,69.61
2022-08-03T02:50:18.233Z,71.69
2022-08-03T02:51:17.129Z,68.42
2022-08-03T02:52:17.371Z,68.75
2022-08-03T02:53:17.120Z,69.78
2022-08-03T02:54:17.066Z,69.86
2022-08-03T02:55:17.051Z,68.53
2022-08-03T02:56:17.028Z,70.45
2022-08-03T02:57:17.016Z,70.12
2022-08-03T02:58:17.019Z,70.98
2022-08-03T02:59:16.974Z,71.29
2022-08-03T03:00:19.936Z,68.08
2022-08-03T03:01:17.976Z,70.32
2022-08-03T03:02:17.365Z,68.80
2022-08-03T03:03:16.927Z,70.09
2022-08-03T03:04:16.877Z,69.73
2022-08-03T03:05:55.377Z,69.05
2022-08-03T03:06:17.831Z,69.15
2022-08-03T03:07:16.816Z,68.40
2022-08-03T03:08:17.662Z,66.49
2022-08-03T03:09:16.771Z,68.50
2022-08-03T03:10:16.755Z,71.24
2022-08-03T03:11:16.735Z,69.02
2022-08-03T03:12:16.953Z,67.68
2022-08-03T03:13:16.720Z,72.19
2022-08-03T03:14:16.676Z,70.77
2022-08-03T03:15:17.661Z,70.44
2022-08-03T03:16:16.635Z,68.94
2022-08-03T03:17:16.618Z,71.50
2022-08-03T03:18:20.215Z,70.45
2022-08-03T03:19:18.579Z,68.42
2022-08-03T03:20:16.562Z,71.77
2022-08-03T03:21:17.538Z,67.70
2022-08-03T03:22:16.715Z,71.25
2022-08-03T03:23:16.526Z,71.17
2022-08-03T03:24:16.477Z,71.93
2022-08-03T03:25:16.457Z,70.30
2022-08-03T03:26:16.443Z,71.15
2022-08-03T03:27:16.708Z,71.31
2022-08-03T03:28:16.424Z,71.29
2022-08-03T03:29:16.378Z,69.56
2022-08-03T03:30:16.360Z,71.97
2022-08-03T03:31:16.337Z,71.39
2022-08-03T03:32:16.645Z,70.02
2022-08-03T03:33:16.329Z,70.74
2022-08-03T03:34:16.276Z,69.28
2022-08-03T03:35:16.256Z,72.35
2022-08-03T03:36:16.237Z,70.54
2022-08-03T03:37:16.216Z,70.68
2022-08-03T03:38:16.223Z,71.91
2022-08-03T03:39:16.247Z,70.44
2022-08-03T03:40:16.155Z,71.38
2022-08-03T03:41:16.133Z,71.48
2022-08-03T03:42:16.533Z,71.04
2022-08-03T03:43:16.120Z,70.20
2022-08-03T03:44:16.074Z,72.81
2022-08-03T03:45:16.052Z,71.22
2022-08-03T03:46:16.030Z,70.00
2022-08-03T03:47:16.637Z,70.90
2022-08-03T03:48:16.017Z,72.38
2022-08-03T03:49:15.977Z,72.01
2022-08-03T03:50:15.948Z,71.26
2022-08-03T03:51:15.930Z,69.11
2022-08-03T03:52:16.162Z,72.03
2022-08-03T03:53:15.951Z,68.09
2022-08-03T03:54:15.869Z,71.67
2022-08-03T03:55:15.850Z,70.70
2022-08-03T03:56:15.825Z,71.55
2022-08-03T03:57:15.819Z,72.26
2022-08-03T03:58:15.812Z,69.56
2022-08-03T03:59:15.764Z,71.03
2022-08-03T04:00:15.746Z,70.13
2022-08-03T04:01:15.777Z,69.23
2022-08-03T04:02:15.895Z,72.67
2022-08-03T04:03:15.707Z,72.13
2022-08-03T04:04:15.665Z,71.31
2022-08-03T04:05:15.653Z,69.39
2022-08-03T04:06:15.622Z,71.80
2022-08-03T04:07:15.602Z,71.88
2022-08-03T04:08:15.609Z,70.58
2022-08-03T04:09:15.574Z,71.08
2022-08-03T04:10:15.543Z,71.26
2022-08-03T04:11:15.533Z,70.64
2022-08-03T04:12:15.744Z,69.70
2022-08-03T04:13:15.522Z,72.09
2022-08-03T04:14:15.469Z,72.65
2022-08-03T04:15:15.452Z,70.38
2022-08-03T04:16:15.428Z,70.15
2022-08-03T04:17:15.420Z,70.87
2022-08-03T04:18:15.419Z,72.42
2022-08-03T04:19:19.651Z,72.97
2022-08-03T04:20:17.355Z,70.19
2022-08-03T04:21:15.347Z,70.80
2022-08-03T04:22:15.509Z,70.08
2022-08-03T04:23:15.787Z,70.77
2022-08-03T04:24:15.279Z,69.04
2022-08-03T04:25:15.267Z,69.43
2022-08-03T04:26:15.243Z,69.47
2022-08-03T04:27:15.250Z,69.10
2022-08-03T04:28:30.362Z,69.93
2022-08-03T04:29:16.191Z,70.82
2022-08-03T04:30:15.162Z,71.84
2022-08-03T04:31:15.142Z,70.66
2022-08-03T04:32:15.338Z,70.86
2022-08-03T04:33:15.113Z,67.33
2022-08-03T04:34:15.117Z,70.04
2022-08-03T04:35:15.069Z,70.12
2022-08-03T04:36:15.052Z,70.15
2022-08-03T04:37:15.034Z,65.69
2022-08-03T04:38:15.019Z,70.05
2022-08-03T04:39:15.025Z,69.57
2022-08-03T04:40:14.985Z,70.16
2022-08-03T04:41:14.971Z,69.01
2022-08-03T04:42:14.947Z,69.05
2022-08-03T04:43:14.925Z,69.80
2022-08-03T04:44:14.932Z,68.76
2022-08-03T04:45:14.911Z,68.60
2022-08-03T04:46:14.874Z,68.65
2022-08-03T04:47:14.852Z,69.94
2022-08-03T04:48:14.838Z,68.05
2022-08-03T04:49:14.902Z,68.73
2022-08-03T04:50:19.428Z,66.29
2022-08-03T04:51:16.784Z,68.63
2022-08-03T04:52:14.885Z,70.00
2022-08-03T04:53:14.792Z,68.07
2022-08-03T04:54:14.759Z,70.18
2022-08-03T04:55:14.716Z,68.14
2022-08-03T04:56:14.697Z,65.96
2022-08-03T04:57:22.683Z,69.50
2022-08-03T04:58:15.663Z,68.78
2022-08-03T04:59:14.677Z,69.00
2022-08-03T05:00:14.633Z,67.61
2022-08-03T05:01:14.657Z,66.95
2022-08-03T05:02:14.970Z,68.83
2022-08-03T05:03:23.988Z,70.12
2022-08-03T05:04:15.591Z,69.40
2022-08-03T05:05:14.542Z,68.85
2022-08-03T05:06:14.523Z,68.81
2022-08-03T05:07:14.507Z,69.06
2022-08-03T05:08:14.486Z,67.66
2022-08-03T05:09:14.526Z,67.73
2022-08-03T05:10:15.977Z,67.73
2022-08-03T05:11:14.435Z,66.19
2022-08-03T05:12:14.754Z,66.14
2022-08-03T05:13:14.413Z,68.61
2022-08-03T05:14:14.409Z,65.39
2022-08-03T05:15:14.364Z,69.06
2022-08-03T05:16:14.347Z,69.19
2022-08-03T05:17:14.360Z,69.01
2022-08-03T05:18:14.514Z,68.02
2022-08-03T05:19:14.325Z,67.55
2022-08-03T05:20:16.659Z,68.06
2022-08-03T05:21:14.261Z,65.97
2022-08-03T05:22:14.521Z,66.78
2022-08-03T05:23:14.228Z,67.16
2022-08-03T05:24:14.235Z,67.95
2022-08-03T05:25:17.401Z,69.90
2022-08-03T05:26:16.172Z,68.70
2022-08-03T05:27:14.159Z,67.81
2022-08-03T05:28:14.137Z,68.23
2022-08-03T05:29:14.182Z,67.68
2022-08-03T05:30:30.589Z,68.16
2022-08-03T05:31:15.088Z,67.71
2022-08-03T05:32:14.072Z,69.12
2022-08-03T05:33:14.103Z,66.12
2022-08-03T05:34:14.064Z,63.55
2022-08-03T05:35:57.187Z,69.04
2022-08-03T05:36:15.004Z,67.26
2022-08-03T05:37:13.993Z,67.83
2022-08-03T05:38:13.967Z,68.90
2022-08-03T05:39:14.979Z,67.53
2022-08-03T05:40:13.932Z,67.28
2022-08-03T05:41:22.066Z,67.32
2022-08-03T05:42:15.085Z,67.75
2022-08-03T05:43:13.890Z,66.36
2022-08-03T05:44:13.895Z,67.28
2022-08-03T05:45:13.852Z,66.69
2022-08-03T05:46:13.841Z,67.30
2022-08-03T05:47:13.817Z,65.92
2022-08-03T05:48:13.803Z,63.60
2022-08-03T05:49:13.868Z,67.58
2022-08-03T05:50:13.763Z,65.83
2022-08-03T05:51:13.793Z,66.76
2022-08-03T05:52:15.184Z,65.55
2022-08-03T05:53:13.717Z,67.37
2022-08-03T05:54:13.732Z,66.84
2022-08-03T05:55:13.683Z,66.54
2022-08-03T05:56:15.987Z,66.62
2022-08-03T05:57:13.653Z,65.11
2022-08-03T05:58:13.643Z,67.21
2022-08-03T05:59:36.973Z,66.88
2022-08-03T06:00:15.675Z,66.04
2022-08-03T06:01:13.647Z,66.00
2022-08-03T06:02:13.579Z,67.49
2022-08-03T06:03:13.557Z,66.69
2022-08-03T06:04:13.568Z,65.50
2022-08-03T06:05:13.525Z,67.27
2022-08-03T06:06:13.511Z,64.34
2022-08-03T06:07:13.495Z,65.85
2022-08-03T06:08:15.523Z,66.71
2022-08-03T06:09:13.488Z,65.63
2022-08-03T06:10:36.357Z,64.44
2022-08-03T06:11:14.443Z,65.81
2022-08-03T06:12:14.281Z,65.62
2022-08-03T06:13:14.412Z,65.67
2022-08-03T06:14:13.416Z,65.13
2022-08-03T06:15:13.371Z,66.24
2022-08-03T06:16:13.353Z,65.06
2022-08-03T06:17:13.339Z,64.58
2022-08-03T06:18:13.352Z,64.81
2022-08-03T06:19:13.337Z,64.58
2022-08-03T06:20:13.292Z,64.99
2022-08-03T06:21:15.244Z,64.72
2022-08-03T06:22:13.264Z,66.42
2022-08-03T06:23:17.876Z,67.06
2022-08-03T06:24:13.259Z,64.91
2022-08-03T06:25:13.219Z,65.72
2022-08-03T06:26:13.435Z,65.55
2022-08-03T06:27:13.185Z,65.78
2022-08-03T06:28:35.411Z,64.40
2022-08-03T06:29:15.186Z,65.20
2022-08-03T06:30:13.143Z,65.46
2022-08-03T06:31:13.128Z,64.93
2022-08-03T06:32:13.109Z,64.31
2022-08-03T06:33:13.094Z,63.62
2022-08-03T06:34:32.353Z,67.00
2022-08-03T06:35:14.087Z,63.96
2022-08-03T06:36:13.050Z,65.44
2022-08-03T06:37:13.034Z,63.40
2022-08-03T06:38:13.025Z,63.82
2022-08-03T06:39:13.026Z,65.13
2022-08-03T06:40:13.759Z,63.61
2022-08-03T06:41:12.969Z,63.47
2022-08-03T06:42:12.952Z,65.63
2022-08-03T06:43:12.942Z,64.07
2022-08-03T06:44:12.947Z,64.85
2022-08-03T06:45:12.906Z,65.23
2022-08-03T06:46:12.894Z,62.53
2022-08-03T06:47:12.876Z,65.93
2022-08-03T06:48:12.865Z,64.82
2022-08-03T06:49:12.953Z,64.64
2022-08-03T06:50:17.913Z,65.23
2022-08-03T06:51:13.842Z,63.89
2022-08-03T06:52:12.848Z,63.51
2022-08-03T06:53:19.916Z,66.00
2022-08-03T06:54:13.795Z,62.79
2022-08-03T06:55:12.756Z,65.26
2022-08-03T06:56:12.739Z,64.10
2022-08-03T06:57:12.721Z,66.36
2022-08-03T06:58:12.712Z,64.03
2022-08-03T07:00:10.769Z,63.91
2022-08-03T07:00:13.680Z,64.75
2022-08-03T07:01:12.712Z,63.61
2022-08-03T07:02:12.653Z,65.31
2022-08-03T07:03:13.632Z,64.21
2022-08-03T07:04:12.641Z,63.21
2022-08-03T07:05:12.601Z,64.22
2022-08-03T07:06:12.586Z,64.68
2022-08-03T07:07:12.571Z,64.52
2022-08-03T07:08:12.556Z,63.94
2022-08-03T07:09:12.570Z,63.48
2022-08-03T07:10:12.527Z,63.55
2022-08-03T07:11:12.511Z,64.59
2022-08-03T07:12:12.499Z,63.75
2022-08-03T07:13:12.479Z,63.47
2022-08-03T07:14:12.493Z,63.11
2022-08-03T07:15:20.472Z,63.72
2022-08-03T07:16:13.438Z,64.23
2022-08-03T07:17:12.436Z,63.74
2022-08-03T07:18:12.408Z,65.15
2022-08-03T07:19:12.391Z,61.62
2022-08-03T07:20:12.406Z,64.35
2022-08-03T07:21:12.363Z,64.35
2022-08-03T07:22:12.408Z,63.52
2022-08-03T07:23:19.211Z,64.35
2022-08-03T07:24:13.316Z,62.93
2022-08-03T07:25:12.329Z,62.26
2022-08-03T07:26:12.285Z,63.85
2022-08-03T07:27:12.271Z,64.85
2022-08-03T07:28:12.257Z,63.15
2022-08-03T07:29:15.181Z,65.34
2022-08-03T07:30:12.257Z,64.83
2022-08-03T07:31:12.215Z,63.25
2022-08-03T07:32:12.198Z,62.84
2022-08-03T07:33:12.181Z,65.92
2022-08-03T07:34:12.174Z,65.37
2022-08-03T07:35:24.775Z,64.10
2022-08-03T07:36:13.135Z,65.27
2022-08-03T07:37:12.121Z,65.14
2022-08-03T07:38:12.104Z,62.83
2022-08-03T07:39:14.682Z,64.86
2022-08-03T07:40:13.103Z,65.78
2022-08-03T07:41:12.060Z,65.04
2022-08-03T07:42:12.046Z,62.84
2022-08-03T07:43:12.032Z,65.13
2022-08-03T07:44:12.015Z,63.92
2022-08-03T07:45:16.715Z,63.68
2022-08-03T07:46:11.983Z,65.50
2022-08-03T07:47:22.373Z,64.30
2022-08-03T07:48:12.946Z,63.39
2022-08-03T07:49:12.971Z,64.32
2022-08-03T07:50:11.951Z,64.82
2022-08-03T07:51:11.907Z,64.50
2022-08-03T07:52:11.892Z,65.18
2022-08-03T07:53:11.953Z,63.81
2022-08-03T07:54:11.857Z,64.52
2022-08-03T07:55:11.870Z,63.25
2022-08-03T07:56:11.828Z,64.19
2022-08-03T07:57:11.812Z,65.77
2022-08-03T07:58:11.797Z,63.42
2022-08-03T07:59:11.781Z,64.02
2022-08-03T08:00:11.789Z,63.25
2022-08-03T08:01:11.783Z,63.14
2022-08-03T08:02:11.785Z,64.16
2022-08-03T08:03:11.718Z,65.05
2022-08-03T08:04:11.708Z,64.71
2022-08-03T08:05:11.715Z,64.24
2022-08-03T08:06:11.670Z,63.28
2022-08-03T08:07:11.660Z,62.26
2022-08-03T08:08:11.828Z,64.50
2022-08-03T08:09:11.627Z,62.43
2022-08-03T08:10:11.638Z,63.37
2022-08-03T08:11:12.277Z,63.07
2022-08-03T08:12:15.145Z,64.11
2022-08-03T08:13:11.576Z,61.48
2022-08-03T08:14:11.554Z,64.96
2022-08-03T08:15:11.567Z,63.91
2022-08-03T08:16:11.524Z,62.26
2022-08-03T08:17:11.499Z,60.82
2022-08-03T08:18:12.493Z,62.58
2022-08-03T08:19:11.477Z,62.40
2022-08-03T08:20:11.486Z,63.77
2022-08-03T08:21:11.447Z,63.38
2022-08-03T08:22:11.431Z,63.09
2022-08-03T08:23:33.873Z,62.96
2022-08-03T08:24:16.168Z,61.23
2022-08-03T08:25:12.414Z,62.43
2022-08-03T08:26:11.367Z,64.04
2022-08-03T08:27:12.358Z,60.73
2022-08-03T08:28:29.706Z,62.84
2022-08-03T08:29:12.322Z,63.29
2022-08-03T08:30:13.891Z,63.77
2022-08-03T08:31:11.293Z,63.35
2022-08-03T08:32:11.282Z,63.69
2022-08-03T08:33:22.629Z,64.39
2022-08-03T08:34:13.247Z,64.27
2022-08-03T08:35:11.260Z,63.18
2022-08-03T08:36:15.182Z,61.77
2022-08-03T08:37:12.204Z,63.19
2022-08-03T08:38:11.185Z,65.47
2022-08-03T08:39:11.179Z,65.22
2022-08-03T08:40:11.186Z,66.44
2022-08-03T08:41:11.142Z,63.80
2022-08-03T08:42:11.127Z,64.13
2022-08-03T08:43:11.108Z,64.57
2022-08-03T08:44:11.092Z,63.68
2022-08-03T08:45:11.118Z,65.43
2022-08-03T08:46:11.061Z,62.99
2022-08-03T08:47:11.044Z,63.32
2022-08-03T08:48:11.030Z,61.05
2022-08-03T08:49:11.099Z,63.37
2022-08-03T08:50:22.094Z,63.53
2022-08-03T08:51:11.983Z,65.02
2022-08-03T08:52:29.541Z,63.46
2022-08-03T08:53:18.311Z,63.49
2022-08-03T08:54:11.942Z,63.78
2022-08-03T08:55:10.952Z,63.41
2022-08-03T08:56:10.907Z,62.83
2022-08-03T08:57:26.808Z,62.46
2022-08-03T08:58:12.883Z,63.54
2022-08-03T08:59:11.861Z,61.32
2022-08-03T09:00:10.872Z,63.84
2022-08-03T09:01:10.876Z,62.70
2022-08-03T09:02:10.814Z,64.87
2022-08-03T09:03:10.800Z,64.05
2022-08-03T09:04:10.782Z,64.13
2022-08-03T09:05:10.799Z,63.37
2022-08-03T09:06:10.748Z,62.74
2022-08-03T09:07:20.022Z,63.10
2022-08-03T09:08:12.716Z,62.34
2022-08-03T09:09:10.702Z,63.29
2022-08-03T09:10:13.624Z,62.11
2022-08-03T09:11:11.940Z,63.24
2022-08-03T09:12:37.487Z,62.76
2022-08-03T09:13:12.638Z,63.48
2022-08-03T09:14:10.624Z,63.90
2022-08-03T09:15:16.926Z,63.49
2022-08-03T09:16:12.616Z,64.57
2022-08-03T09:17:17.012Z,64.51
2022-08-03T09:18:11.560Z,62.25
2022-08-03T09:19:10.542Z,63.16
2022-08-03T09:20:10.557Z,63.49
2022-08-03T09:21:29.670Z,65.06
2022-08-03T09:22:12.502Z,61.44
2022-08-03T09:23:44.529Z,64.39
2022-08-03T09:24:20.859Z,63.33
2022-08-03T09:25:24.209Z,63.24
2022-08-03T09:26:12.443Z,64.79
2022-08-03T09:27:10.416Z,64.27
2022-08-03T09:28:10.580Z,63.92
2022-08-03T09:29:14.803Z,65.76
2022-08-03T09:30:19.020Z,63.65
2022-08-03T09:31:11.356Z,62.84
2022-08-03T09:32:10.338Z,64.02
2022-08-03T09:33:10.327Z,62.30
2022-08-03T09:34:10.295Z,64.47
2022-08-03T09:35:11.314Z,63.04
2022-08-03T09:36:10.274Z,65.68
2022-08-03T09:37:10.254Z,64.36
2022-08-03T09:38:13.830Z,63.73
2022-08-03T09:39:10.218Z,64.35
2022-08-03T09:40:10.233Z,65.29
2022-08-03T09:41:10.187Z,64.71
2022-08-03T09:42:10.210Z,64.26
2022-08-03T09:43:10.157Z,64.00
2022-08-03T09:44:24.007Z,64.58
2022-08-03T09:45:11.152Z,64.42
2022-08-03T09:46:10.104Z,64.05
2022-08-03T09:47:10.096Z,63.54
2022-08-03T09:48:10.071Z,65.13
2022-08-03T09:49:11.667Z,63.32
2022-08-03T09:50:10.766Z,64.53
2022-08-03T09:51:13.266Z,63.18
2022-08-03T09:52:38.429Z,64.18
2022-08-03T09:53:10.986Z,64.85
2022-08-03T09:54:17.621Z,65.06
2022-08-03T09:55:23.586Z,60.89
2022-08-03T09:56:36.049Z,64.98
2022-08-03T09:57:10.917Z,65.05
2022-08-03T09:58:09.901Z,66.62
2022-08-03T09:59:09.885Z,65.27
2022-08-03T10:00:09.901Z,66.10
2022-08-03T10:01:14.827Z,65.39
2022-08-03T10:02:10.867Z,66.88
2022-08-03T10:03:09.815Z,67.76
2022-08-03T10:04:09.795Z,66.97
2022-08-03T10:05:09.816Z,65.27
2022-08-03T10:06:09.765Z,65.07
2022-08-03T10:07:09.747Z,65.59
2022-08-03T10:08:09.737Z,65.27
2022-08-03T10:09:09.713Z,63.47
2022-08-03T10:10:30.402Z,62.64
2022-08-03T10:11:10.681Z,65.23
2022-08-03T10:12:09.666Z,65.19
2022-08-03T10:13:09.641Z,65.14
2022-08-03T10:14:09.620Z,63.03
2022-08-03T10:15:09.635Z,64.83
2022-08-03T10:16:23.903Z,62.91
2022-08-03T10:17:10.586Z,65.72
2022-08-03T10:18:09.553Z,65.92
2022-08-03T10:19:09.540Z,65.08
2022-08-03T10:20:09.553Z,66.00
2022-08-03T10:21:09.508Z,62.96
2022-08-03T10:22:09.484Z,64.53
2022-08-03T10:23:09.468Z,64.06
2022-08-03T10:24:09.448Z,64.42
2022-08-03T10:25:09.453Z,64.03
2022-08-03T10:26:10.420Z,64.82
2022-08-03T10:27:09.393Z,63.62
2022-08-03T10:28:09.406Z,66.24
2022-08-03T10:29:10.063Z,66.28
2022-08-03T10:30:09.336Z,67.96
2022-08-03T10:31:09.323Z,67.29
2022-08-03T10:32:09.303Z,65.61
2022-08-03T10:33:15.315Z,65.95
2022-08-03T10:34:10.266Z,64.72
2022-08-03T10:35:19.636Z,65.11
2022-08-03T10:36:10.264Z,66.70
2022-08-03T10:37:09.221Z,67.11
2022-08-03T10:38:09.198Z,66.04
2022-08-03T10:39:16.110Z,67.20
2022-08-03T10:40:10.209Z,66.17
2022-08-03T10:41:09.171Z,64.55
2022-08-03T10:42:14.671Z,67.20
2022-08-03T10:43:10.112Z,65.91
2022-08-03T10:44:09.093Z,62.62
2022-08-03T10:45:09.072Z,63.10
2022-08-03T10:46:09.085Z,65.00
2022-08-03T10:47:09.043Z,64.07
2022-08-03T10:48:09.043Z,68.24
2022-08-03T10:49:09.161Z,66.83
2022-08-03T10:50:08.988Z,67.18
2022-08-03T10:51:08.994Z,65.52
2022-08-03T10:52:28.027Z,65.94
2022-08-03T10:53:09.941Z,64.98
2022-08-03T10:54:11.853Z,66.32
2022-08-03T10:55:10.187Z,65.52
2022-08-03T10:56:08.911Z,63.94
2022-08-03T10:57:14.388Z,63.22
2022-08-03T10:58:11.340Z,63.22
2022-08-03T10:59:09.858Z,64.69
2022-08-03T11:00:08.806Z,63.95
2022-08-03T11:01:08.908Z,66.28
2022-08-03T11:02:08.767Z,66.99
2022-08-03T11:03:08.833Z,67.98
2022-08-03T11:04:11.886Z,67.61
2022-08-03T11:05:10.718Z,67.34
2022-08-03T11:06:08.725Z,66.73
2022-08-03T11:07:08.682Z,68.46
2022-08-03T11:08:08.662Z,66.66
2022-08-03T11:09:08.653Z,65.71
2022-08-03T11:10:10.629Z,65.64
2022-08-03T11:11:09.636Z,65.25
2022-08-03T11:12:08.591Z,66.48
2022-08-03T11:13:08.575Z,63.71
2022-08-03T11:14:08.556Z,63.07
2022-08-03T11:15:08.538Z,63.87
2022-08-03T11:16:14.154Z,63.43
2022-08-03T11:17:14.629Z,62.99
2022-08-03T11:18:08.486Z,63.56
2022-08-03T11:19:08.470Z,65.16
2022-08-03T11:20:08.448Z,66.68
2022-08-03T11:21:08.459Z,63.71
2022-08-03T11:22:08.415Z,66.00
2022-08-03T11:23:08.398Z,66.10
2022-08-03T11:24:08.395Z,66.45
2022-08-03T11:25:08.365Z,63.74
2022-08-03T11:26:09.370Z,64.89
2022-08-03T11:27:08.326Z,62.78
2022-08-03T11:28:08.308Z,63.03
2022-08-03T11:29:08.311Z,63.44
2022-08-03T11:30:08.283Z,63.32
2022-08-03T11:31:08.284Z,64.50
2022-08-03T11:32:08.236Z,64.19
2022-08-03T11:33:08.228Z,65.25
2022-08-03T11:34:08.204Z,63.34
2022-08-03T11:35:08.180Z,62.04
2022-08-03T11:36:08.192Z,63.23
2022-08-03T11:37:08.148Z,64.21
2022-08-03T11:38:08.134Z,64.15
2022-08-03T11:39:08.100Z,64.09
2022-08-03T11:40:09.173Z,63.50
2022-08-03T11:41:08.099Z,64.14
2022-08-03T11:42:08.061Z,64.96
2022-08-03T11:43:08.041Z,65.82
2022-08-03T11:44:08.021Z,66.59
2022-08-03T11:45:08.006Z,66.87
2022-08-03T11:46:08.018Z,67.53
2022-08-03T11:47:07.975Z,64.93
2022-08-03T11:48:07.951Z,63.90
2022-08-03T11:49:10.913Z,63.55
2022-08-03T11:50:08.966Z,64.93
2022-08-03T11:51:07.927Z,65.28
2022-08-03T11:52:07.887Z,64.54
2022-08-03T11:53:07.866Z,62.78
2022-08-03T11:54:07.854Z,64.71
2022-08-03T11:55:07.829Z,64.58
2022-08-03T11:56:12.716Z,64.41
2022-08-03T11:57:08.789Z,65.29
2022-08-03T11:59:16.666Z,62.55
2022-08-03T11:59:19.879Z,62.80
2022-08-03T12:00:08.743Z,65.79
2022-08-03T12:01:07.753Z,66.14
2022-08-03T12:02:07.706Z,65.94
2022-08-03T12:03:07.777Z,64.49
2022-08-03T12:04:07.674Z,66.39
2022-08-03T12:05:07.654Z,65.65
2022-08-03T12:06:07.659Z,66.34
2022-08-03T12:07:07.617Z,66.98
2022-08-03T12:08:07.603Z,65.62
2022-08-03T12:09:07.582Z,66.69
2022-08-03T12:10:07.591Z,65.30
2022-08-03T12:11:07.575Z,65.38
2022-08-03T12:12:07.523Z,65.33
2022-08-03T12:14:26.893Z,65.32
2022-08-03T12:14:45.550Z,63.45
2022-08-03T12:15:08.471Z,62.42
2022-08-03T12:16:07.481Z,63.48
2022-08-03T12:17:07.447Z,65.24
2022-08-03T12:18:08.413Z,64.08
2022-08-03T12:19:07.399Z,64.30
2022-08-03T12:20:07.446Z,63.21
2022-08-03T12:21:07.391Z,65.73
2022-08-03T12:22:07.348Z,63.18
2022-08-03T12:23:07.330Z,63.66
2022-08-03T12:24:07.311Z,63.75
2022-08-03T12:25:07.301Z,62.91
2022-08-03T12:26:07.304Z,64.24
2022-08-03T12:27:07.262Z,64.62
2022-08-03T12:28:36.331Z,62.84
2022-08-03T12:29:08.224Z,64.20
2022-08-03T12:30:07.297Z,65.10
2022-08-03T12:31:07.216Z,65.00
2022-08-03T12:32:07.170Z,65.13
2022-08-03T12:33:07.181Z,66.14
2022-08-03T12:34:07.135Z,63.46
2022-08-03T12:35:07.123Z,63.13
2022-08-03T12:36:07.132Z,63.27
2022-08-03T12:37:29.337Z,63.72
2022-08-03T12:38:08.353Z,66.30
2022-08-03T12:39:07.262Z,67.08
2022-08-03T12:40:10.550Z,66.82
2022-08-03T12:41:08.049Z,65.41
2022-08-03T12:42:06.997Z,66.43
2022-08-03T12:43:07.157Z,66.89
2022-08-03T12:44:06.961Z,65.11
2022-08-03T12:45:06.946Z,64.09
2022-08-03T12:46:06.951Z,61.10
2022-08-03T12:47:06.929Z,61.29
2022-08-03T12:48:06.890Z,64.86
2022-08-03T12:49:06.952Z,66.87
2022-08-03T12:50:06.853Z,64.69
2022-08-03T12:51:06.861Z,65.63
2022-08-03T12:52:07.795Z,65.53